createdAt,value
2022-09-28T00:02:41.867Z,100.00
2022-09-28T00:07:47.230Z,100.00
2022-09-28T00:12:51.554Z,100.00
2022-09-28T00:17:55.494Z,100.00
2022-09-28T00:23:00.712Z,100.00
2022-09-28T00:28:05.278Z,100.00
2022-09-28T00:33:09.176Z,100.00
2022-09-28T00:38:16.752Z,100.00
2022-09-28T00:43:21.353Z,100.00
2022-09-28T00:48:28.889Z,100.00
2022-09-28T00:53:38.622Z,100.00
2022-09-28T00:58:46.748Z,100.00
2022-09-28T01:03:51.508Z,100.00
2022-09-28T01:09:02.600Z,100.00
2022-09-28T01:14:09.139Z,100.00
2022-09-28T01:19:30.968Z,100.00
2022-09-28T01:24:43.727Z,100.00
2022-09-28T01:29:56.532Z,100.00
2022-09-28T01:35:06.671Z,100.00
2022-09-28T01:40:13.236Z,100.00
2022-09-28T01:45:24.068Z,100.00
2022-09-28T01:50:32.336Z,100.00
2022-09-28T01:55:43.311Z,100.00
2022-09-28T02:00:53.921Z,100.00
2022-09-28T02:06:01.279Z,100.00
2022-09-28T02:11:12.351Z,100.00
2022-09-28T02:16:24.083Z,100.00
2022-09-28T02:21:32.711Z,100.00
2022-09-28T02:26:40.250Z,100.00
2022-09-28T02:31:45.654Z,100.00
2022-09-28T02:36:49.784Z,100.00
2022-09-28T02:42:00.328Z,100.00
2022-09-28T02:47:17.520Z,100.00
2022-09-28T02:52:38.736Z,100.00
2022-09-28T02:57:59.849Z,100.00
2022-09-28T03:03:13.915Z,100.00
2022-09-28T03:08:25.724Z,100.00
2022-09-28T03:13:30.531Z,100.00
2022-09-28T03:18:35.811Z,100.00
2022-09-28T03:23:40.004Z,100.00
2022-09-28T03:28:44.198Z,100.00
2022-09-28T03:33:55.797Z,100.00
2022-09-28T03:38:59.871Z,100.00
2022-09-28T03:44:04.996Z,100.00
2022-09-28T03:49:11.868Z,100.00
2022-09-28T03:54:15.729Z,100.00
2022-09-28T03:59:19.945Z,100.00
2022-09-28T04:04:25.416Z,100.00
2022-09-28T04:09:29.806Z,100.00
2022-09-28T04:14:33.820Z,100.00
2022-09-28T04:19:39.452Z,100.00
2022-09-28T04:25:02.575Z,100.00
2022-09-28T04:30:08.127Z,100.00
2022-09-28T04:35:13.994Z,100.00
2022-09-28T04:40:18.141Z,100.00
2022-09-28T04:45:26.198Z,100.00
2022-09-28T04:50:33.386Z,100.00
2022-09-28T04:55:43.455Z,100.00
2022-09-28T05:00:47.394Z,100.00
2022-09-28T05:06:28.039Z,100.00
2022-09-28T05:11:37.639Z,100.00
2022-09-28T05:16:46.279Z,100.00
2022-09-28T05:22:04.047Z,100.00
2022-09-28T05:27:13.355Z,100.00
2022-09-28T05:32:17.928Z,100.00
2022-09-28T05:37:34.497Z,100.00
2022-09-28T05:42:38.488Z,100.00
2022-09-28T05:47:43.905Z,100.00
2022-09-28T05:53:00.676Z,100.00
2022-09-28T05:58:06.720Z,100.00
2022-09-28T06:03:14.420Z,100.00
2022-09-28T06:08:19.650Z,100.00
2022-09-28T06:13:31.245Z,100.00
2022-09-28T06:18:35.550Z,100.00
2022-09-28T06:23:53.501Z,100.00
2022-09-28T06:28:57.856Z,100.00
2022-09-28T06:34:02.394Z,100.00
2022-09-28T06:39:08.273Z,100.00
2022-09-28T06:44:13.696Z,100.00
2022-09-28T06:49:41.668Z,100.00
2022-09-28T06:55:07.858Z,100.00
2022-09-28T07:00:24.149Z,100.00
2022-09-28T07:05:29.495Z,100.00
2022-09-28T07:10:57.678Z,100.00
2022-09-28T07:16:26.769Z,100.00
2022-09-28T07:21:32.212Z,100.00
2022-09-28T07:26:41.106Z,100.00
2022-09-28T07:32:00.228Z,100.00
2022-09-28T07:37:16.043Z,100.00
2022-09-28T07:42:22.624Z,100.00
2022-09-28T07:47:33.832Z,100.00
2022-09-28T07:53:08.397Z,100.00
2022-09-28T07:58:34.573Z,100.00
2022-09-28T08:03:58.465Z,100.00
2022-09-28T08:09:03.021Z,100.00
2022-09-28T08:14:33.981Z,100.00
2022-09-28T08:20:21.850Z,98.84
2022-09-28T08:25:25.986Z,88.13
2022-09-28T08:30:32.546Z,79.64
2022-09-28T08:35:58.214Z,84.47
2022-09-28T08:41:35.321Z,75.05
2022-09-28T08:47:03.268Z,86.22
2022-09-28T08:52:35.792Z,75.96
2022-09-28T08:58:12.265Z,75.84
2022-09-28T09:03:23.866Z,71.83
2022-09-28T09:34:30.461Z,71.10
2022-09-28T09:40:31.209Z,67.17
2022-09-28T09:46:04.002Z,69.14
2022-09-28T09:51:20.974Z,61.73
2022-09-28T09:56:32.310Z,62.50
2022-09-28T10:01:54.821Z,65.69
2022-09-28T10:07:24.909Z,62.50
2022-09-28T10:12:32.180Z,55.31
2022-09-28T10:17:38.929Z,58.88
2022-09-28T10:23:04.209Z,54.55
2022-09-28T10:28:17.973Z,49.97
2022-09-28T10:33:33.537Z,48.85
2022-09-28T10:38:38.050Z,49.76
2022-09-28T10:44:06.544Z,46.78
2022-09-28T10:49:37.463Z,48.36
2022-09-28T10:54:54.464Z,45.75
2022-09-28T11:00:01.716Z,44.54
2022-09-28T11:05:22.286Z,46.12
2022-09-28T11:10:30.105Z,42.54
2022-09-28T11:15:44.559Z,43.26
2022-09-28T11:21:11.446Z,44.81
2022-09-28T11:26:20.643Z,42.57
2022-09-28T11:31:30.617Z,41.70
2022-09-28T11:36:57.360Z,43.13
2022-09-28T11:42:18.730Z,40.82
2022-09-28T11:47:46.161Z,45.33
2022-09-28T11:52:58.408Z,45.26
2022-09-28T11:58:07.526Z,47.77
2022-09-28T12:03:17.466Z,46.84
2022-09-28T12:08:27.529Z,49.27
2022-09-28T12:13:35.566Z,52.15
2022-09-28T12:18:54.275Z,49.67
2022-09-28T12:24:05.004Z,52.63
2022-09-28T12:29:15.162Z,54.23
2022-09-28T12:34:20.631Z,57.28
2022-09-28T12:39:57.020Z,54.22
2022-09-28T12:45:22.882Z,54.47
2022-09-28T12:50:39.889Z,54.43
2022-09-28T12:55:56.531Z,53.15
2022-09-28T13:01:13.801Z,60.31
2022-09-28T13:06:36.143Z,52.67
2022-09-28T13:11:51.989Z,55.82
2022-09-28T13:17:01.771Z,65.88
2022-09-28T13:22:28.101Z,66.82
2022-09-28T13:27:35.897Z,59.24
2022-09-28T13:32:40.069Z,59.99
2022-09-28T13:37:45.478Z,57.55
2022-09-28T13:43:19.609Z,58.80
2022-09-28T13:48:35.435Z,65.20
2022-09-28T13:54:03.828Z,69.94
2022-09-28T13:59:17.525Z,95.63
2022-09-28T14:04:23.153Z,90.76
2022-09-28T14:09:42.276Z,89.90
2022-09-28T14:14:50.202Z,100.00
2022-09-28T14:19:56.642Z,100.00
2022-09-28T14:25:11.979Z,100.00
2022-09-28T14:30:23.427Z,100.00
2022-09-28T14:35:40.248Z,100.00
2022-09-28T14:41:13.852Z,100.00
2022-09-28T14:46:45.803Z,100.00
2022-09-28T14:52:12.142Z,100.00
2022-09-28T14:57:24.995Z,100.00
2022-09-28T15:02:33.116Z,100.00
2022-09-28T15:07:47.732Z,100.00
2022-09-28T15:12:54.075Z,100.00
2022-09-28T15:18:07.711Z,100.00
2022-09-28T15:23:26.752Z,100.00
2022-09-28T15:28:32.091Z,100.00
2022-09-28T15:33:54.386Z,100.00
2022-09-28T15:39:01.450Z,100.00
2022-09-28T15:44:20.290Z,100.00
2022-09-28T15:49:26.804Z,100.00
2022-09-28T15:54:43.317Z,100.00
2022-09-28T15:59:56.965Z,100.00
2022-09-28T16:05:04.660Z,100.00
2022-09-28T16:10:35.131Z,100.00
2022-09-28T16:15:42.467Z,100.00
2022-09-28T16:20:47.783Z,100.00
2022-09-28T16:25:54.745Z,100.00
2022-09-28T16:31:05.310Z,100.00
2022-09-28T16:36:13.861Z,100.00
2022-09-28T16:41:21.602Z,100.00
2022-09-28T16:46:36.361Z,100.00
2022-09-28T16:51:40.369Z,100.00
2022-09-28T16:56:44.340Z,100.00
2022-09-28T17:01:49.687Z,100.00
2022-09-28T17:06:54.660Z,100.00
2022-09-28T17:11:58.551Z,100.00
2022-09-28T17:17:09.828Z,100.00
2022-09-28T17:22:16.853Z,100.00
2022-09-28T17:27:21.696Z,100.00
2022-09-28T17:32:26.926Z,100.00
2022-09-28T17:37:30.872Z,100.00
2022-09-28T17:42:34.691Z,100.00
2022-09-28T17:47:40.066Z,100.00
2022-09-28T17:52:43.980Z,100.00
2022-09-28T17:57:48.024Z,100.00
2022-09-28T18:02:53.643Z,100.00
2022-09-28T18:07:58.808Z,100.00
2022-09-28T18:13:02.693Z,100.00
2022-09-28T18:18:09.584Z,100.00
2022-09-28T18:23:13.484Z,100.00
2022-09-28T18:28:17.358Z,100.00
2022-09-28T18:33:22.632Z,100.00
2022-09-28T18:38:26.590Z,100.00
2022-09-28T18:43:34.350Z,100.00
2022-09-28T18:48:41.812Z,100.00
2022-09-28T18:53:46.900Z,100.00
2022-09-28T18:58:52.639Z,100.00
2022-09-28T19:04:00.152Z,100.00
2022-09-28T19:09:05.406Z,100.00
2022-09-28T19:14:15.106Z,100.00
2022-09-28T19:19:23.531Z,100.00
2022-09-28T19:24:27.410Z,100.00
2022-09-28T19:29:31.323Z,100.00
2022-09-28T19:34:39.761Z,100.00
2022-09-28T19:39:43.643Z,100.00
2022-09-28T19:44:47.565Z,100.00
2022-09-28T19:49:52.843Z,100.00
2022-09-28T19:54:57.337Z,100.00
2022-09-28T20:00:03.569Z,100.00
2022-09-28T20:05:11.812Z,100.00
2022-09-28T20:10:16.214Z,100.00
2022-09-28T20:15:22.379Z,100.00
2022-09-28T20:20:27.988Z,100.00
2022-09-28T20:25:32.232Z,100.00
2022-09-28T20:30:37.424Z,100.00
2022-09-28T20:35:44.413Z,100.00
2022-09-28T20:40:48.354Z,100.00
2022-09-28T20:45:53.011Z,100.00
2022-09-28T20:51:03.112Z,100.00
2022-09-28T20:56:08.759Z,100.00
2022-09-28T21:01:17.201Z,100.00
2022-09-28T21:06:24.431Z,100.00
2022-09-28T21:11:29.734Z,100.00
2022-09-28T21:16:35.122Z,100.00
2022-09-28T21:21:40.375Z,100.00
2022-09-28T21:26:44.391Z,100.00
2022-09-28T21:31:48.658Z,100.00
2022-09-28T21:36:54.521Z,100.00
2022-09-28T21:41:58.525Z,100.00
2022-09-28T21:47:02.473Z,100.00
2022-09-28T21:52:07.790Z,100.00
2022-09-28T21:57:12.107Z,100.00
2022-09-28T22:02:15.978Z,100.00
2022-09-28T22:07:21.229Z,100.00
2022-09-28T22:12:25.106Z,100.00
2022-09-28T22:17:28.969Z,100.00
2022-09-28T22:22:34.363Z,100.00
2022-09-28T22:27:38.998Z,100.00
2022-09-28T22:32:42.919Z,100.00
2022-09-28T22:37:48.243Z,100.00
2022-09-28T22:42:52.224Z,100.00
2022-09-28T22:47:56.116Z,100.00
2022-09-28T22:53:02.049Z,100.00
2022-09-28T22:58:05.922Z,100.00
2022-09-28T23:03:09.996Z,100.00
2022-09-28T23:08:15.371Z,100.00
2022-09-28T23:13:19.456Z,100.00
2022-09-28T23:18:23.389Z,100.00
2022-09-28T23:23:28.760Z,100.00
2022-09-28T23:28:32.664Z,100.00
2022-09-28T23:33:36.555Z,100.00
2022-09-28T23:38:42.264Z,100.00
2022-09-28T23:43:46.344Z,100.00
2022-09-28T23:48:50.926Z,100.00
2022-09-28T23:53:56.139Z,100.00
2022-09-28T23:58:59.998Z,100.00
